Terminal Aerodrome Forecast
Issued by NWS

Home | Current Version | Previous Version | Text Only | Print | Product List | Glossary On
Versions: 1 2 3 4 5 6 7 8 9 10 11 12 13 14 15 16 17 18 19 20 21 22 23 24
000
FTUS46 KLOX 040002 AAA
TAFPMD
TAF AMD
KPMD 040002Z 0400/0424 26015KT P6SM SCT150
     FM040200 29010KT P6SM SKC
     FM041000 20008KT P6SM SKC
     FM041500 VRB03KT P6SM SKC
     FM042000 23016KT P6SM SKC=

USA.gov is the U.S. government's official web portal to all federal, state and local government web resources and services.